createdAt,value
2022-11-24T00:00:43.925Z,8.45
2022-11-24T00:04:25.885Z,7.93
2022-11-24T00:08:07.560Z,3.97
2022-11-24T00:12:09.324Z,7.35
2022-11-24T00:15:51.026Z,10.20
2022-11-24T00:19:32.718Z,6.15
2022-11-24T00:23:34.712Z,8.43
2022-11-24T00:27:16.542Z,6.30
2022-11-24T00:30:58.318Z,6.07
2022-11-24T00:34:43.297Z,8.13
2022-11-24T00:38:25.250Z,7.45
2022-11-24T00:42:25.860Z,13.23
2022-11-24T00:46:07.766Z,13.35
2022-11-24T00:49:49.559Z,9.35
2022-11-24T00:53:32.637Z,8.20
2022-11-24T00:57:14.354Z,8.98
2022-11-24T01:00:56.316Z,6.50
2022-11-24T01:04:38.197Z,9.82
2022-11-24T01:08:19.926Z,7.57
2022-11-24T01:12:01.857Z,7.65
2022-11-24T01:15:43.638Z,8.35
2022-11-24T01:19:25.364Z,12.13
2022-11-24T01:23:09.365Z,12.70
2022-11-24T01:26:51.093Z,14.10
2022-11-24T01:30:32.852Z,11.13
2022-11-24T01:34:19.739Z,14.02
2022-11-24T01:38:01.435Z,16.20
2022-11-24T01:42:05.047Z,17.40
2022-11-24T01:45:47.415Z,15.35
2022-11-24T01:49:51.963Z,13.65
2022-11-24T01:53:35.897Z,13.10
2022-11-24T01:57:23.812Z,18.75
2022-11-24T02:01:05.636Z,14.02
2022-11-24T02:04:47.656Z,11.32
2022-11-24T02:08:32.510Z,17.15
2022-11-24T02:12:15.499Z,13.75
2022-11-24T02:15:57.269Z,19.57
2022-11-24T02:19:54.049Z,18.83
2022-11-24T02:24:00.939Z,14.70
2022-11-24T02:27:43.680Z,10.10
2022-11-24T02:31:46.804Z,12.77
2022-11-24T02:35:28.620Z,13.45
2022-11-24T02:39:14.850Z,19.58
2022-11-24T02:43:12.484Z,16.17
2022-11-24T02:47:08.407Z,12.23
2022-11-24T02:50:50.131Z,16.70
2022-11-24T02:54:33.274Z,19.65
2022-11-24T02:58:15.782Z,16.30
2022-11-24T03:01:58.822Z,18.60
2022-11-24T03:05:40.616Z,11.93
2022-11-24T03:09:22.311Z,19.17
2022-11-24T03:13:05.077Z,14.38
2022-11-24T03:16:46.769Z,19.17
2022-11-24T03:20:28.552Z,15.43
2022-11-24T03:24:10.398Z,12.63
2022-11-24T03:27:52.133Z,13.35
2022-11-24T03:31:34.178Z,19.58
2022-11-24T03:35:15.963Z,12.45
2022-11-24T03:38:57.647Z,11.38
2022-11-24T03:42:41.611Z,13.13
2022-11-24T03:46:23.355Z,22.45
2022-11-24T03:50:05.614Z,13.55
2022-11-24T03:53:48.505Z,14.15
2022-11-24T03:57:30.245Z,12.93
2022-11-24T04:01:32.730Z,11.88
2022-11-24T04:05:14.637Z,20.05
2022-11-24T04:08:56.514Z,17.27
2022-11-24T04:12:44.541Z,19.27
2022-11-24T04:16:26.550Z,19.63
2022-11-24T04:20:10.571Z,13.93
2022-11-24T04:23:52.385Z,14.70
2022-11-24T04:27:34.369Z,16.63
2022-11-24T04:31:16.394Z,16.23
2022-11-24T04:34:58.145Z,14.93
2022-11-24T04:39:19.986Z,15.90
2022-11-24T04:42:43.266Z,13.70
2022-11-24T04:46:24.969Z,15.20
2022-11-24T04:50:07.751Z,14.93
2022-11-24T04:53:50.786Z,17.97
2022-11-24T04:57:32.471Z,17.40
2022-11-24T05:01:14.225Z,24.02
2022-11-24T05:04:55.912Z,16.17
2022-11-24T05:08:37.645Z,11.45
2022-11-24T05:12:20.418Z,14.60
2022-11-24T05:16:02.165Z,18.85
2022-11-24T05:19:43.982Z,18.15
2022-11-24T05:23:25.969Z,15.75
2022-11-24T05:27:07.637Z,22.25
2022-11-24T05:30:49.326Z,21.45
2022-11-24T05:34:33.578Z,12.13
2022-11-24T05:38:16.357Z,21.08
2022-11-24T05:41:58.351Z,19.38
2022-11-24T05:45:40.080Z,25.58
2022-11-24T05:49:21.790Z,16.70
2022-11-24T05:53:10.673Z,23.83
2022-11-24T05:56:52.342Z,12.85
2022-11-24T06:00:34.493Z,17.67
2022-11-24T06:04:16.334Z,23.13
2022-11-24T06:07:59.257Z,17.27
2022-11-24T06:11:41.178Z,17.10
2022-11-24T06:15:23.013Z,18.92
2022-11-24T06:19:04.694Z,16.95
2022-11-24T06:22:48.280Z,16.52
2022-11-24T06:26:29.955Z,16.52
2022-11-24T06:30:12.531Z,18.73
2022-11-24T06:33:57.463Z,18.13
2022-11-24T06:37:39.438Z,15.05
2022-11-24T06:41:21.137Z,18.83
2022-11-24T06:45:07.584Z,24.33
2022-11-24T06:48:53.992Z,21.98
2022-11-24T06:52:37.857Z,22.25
2022-11-24T06:56:20.177Z,16.58
2022-11-24T07:00:02.885Z,22.85
2022-11-24T07:03:45.925Z,12.88
2022-11-24T07:07:30.405Z,20.35
2022-11-24T07:11:17.061Z,21.00
2022-11-24T07:14:58.746Z,21.52
2022-11-24T07:18:40.865Z,31.55
2022-11-24T07:22:22.767Z,25.15
2022-11-24T07:26:06.957Z,23.98
2022-11-24T07:29:48.912Z,21.10
2022-11-24T07:33:31.839Z,31.38
2022-11-24T07:37:13.516Z,31.23
2022-11-24T07:40:55.195Z,24.85
2022-11-24T07:44:40.645Z,22.05
2022-11-24T07:48:22.799Z,26.10
2022-11-24T07:52:05.799Z,23.90
2022-11-24T07:56:13.858Z,19.90
2022-11-24T07:59:56.525Z,22.55
2022-11-24T08:03:39.612Z,32.90
2022-11-24T08:07:21.429Z,24.48
2022-11-24T08:11:11.120Z,25.00
2022-11-24T08:14:52.777Z,29.58
2022-11-24T08:18:35.192Z,33.90
2022-11-24T08:22:38.070Z,27.13
2022-11-24T08:26:19.764Z,27.33
2022-11-24T08:30:01.482Z,25.00
2022-11-24T08:33:43.221Z,26.75
2022-11-24T08:37:26.375Z,30.02
2022-11-24T08:41:12.901Z,25.02
2022-11-24T08:44:59.038Z,33.03
2022-11-24T08:48:41.580Z,30.13
2022-11-24T08:52:42.457Z,27.27
2022-11-24T08:56:24.766Z,24.15
2022-11-24T09:00:07.089Z,37.17
2022-11-24T09:03:50.925Z,28.48
2022-11-24T09:07:33.549Z,28.80
2022-11-24T09:11:16.366Z,27.38
2022-11-24T09:14:58.042Z,22.77
2022-11-24T09:18:39.868Z,26.00
2022-11-24T09:22:21.629Z,25.40
2022-11-24T09:26:30.521Z,31.00
2022-11-24T09:30:12.850Z,21.60
2022-11-24T09:34:13.768Z,22.25
2022-11-24T09:37:55.547Z,23.05
2022-11-24T09:41:46.163Z,24.55
2022-11-24T09:46:03.925Z,26.38
2022-11-24T09:50:00.386Z,36.30
2022-11-24T09:53:48.461Z,29.35
2022-11-24T09:57:34.226Z,26.75
2022-11-24T10:01:28.887Z,27.73
2022-11-24T10:05:12.451Z,26.05
2022-11-24T10:09:07.968Z,27.90
2022-11-24T10:13:02.280Z,23.42
2022-11-24T10:16:56.614Z,19.83
2022-11-24T10:20:59.764Z,30.48
2022-11-24T10:24:59.528Z,23.23
2022-11-24T10:28:43.052Z,21.83
2022-11-24T10:32:33.482Z,21.25
2022-11-24T10:36:48.680Z,28.88
2022-11-24T10:40:58.089Z,17.88
2022-11-24T10:44:41.380Z,23.73
2022-11-24T10:48:27.870Z,23.17
2022-11-24T10:53:05.827Z,20.60
2022-11-24T10:56:48.130Z,18.65
2022-11-24T11:00:30.881Z,21.60
2022-11-24T11:04:20.414Z,23.83
2022-11-24T11:08:34.739Z,20.08
2022-11-24T11:16:50.735Z,21.48
2022-11-24T11:20:33.598Z,19.10
2022-11-24T11:24:16.749Z,24.83
2022-11-24T11:28:25.331Z,23.10
2022-11-24T11:36:28.328Z,28.98
2022-11-24T11:40:16.747Z,20.80
2022-11-24T11:44:17.545Z,27.00
2022-11-24T11:48:02.797Z,23.17
2022-11-24T11:52:01.055Z,22.70
2022-11-24T11:56:07.110Z,21.92
2022-11-24T12:00:20.395Z,21.23
2022-11-24T12:04:58.756Z,19.83
2022-11-24T12:09:22.545Z,17.38
2022-11-24T12:13:24.586Z,23.45
2022-11-24T12:17:30.402Z,23.30
2022-11-24T12:21:22.842Z,18.20
2022-11-24T12:25:21.919Z,17.95
2022-11-24T12:29:06.718Z,24.65
2022-11-24T12:33:50.494Z,15.15
2022-11-24T12:37:58.625Z,14.88
2022-11-24T12:41:49.614Z,17.20
2022-11-24T12:45:45.229Z,20.60
2022-11-24T12:49:47.109Z,17.17
2022-11-24T12:53:32.309Z,24.95
2022-11-24T12:57:33.513Z,20.42
2022-11-24T13:01:31.881Z,23.50
2022-11-24T13:05:27.764Z,14.27
2022-11-24T13:09:12.880Z,17.23
2022-11-24T13:13:02.149Z,17.50
2022-11-24T13:17:28.193Z,21.38
2022-11-24T13:20:53.675Z,18.10
2022-11-24T13:24:38.802Z,12.65
2022-11-24T13:29:17.882Z,15.50
2022-11-24T13:33:21.669Z,15.13
2022-11-24T13:37:34.738Z,17.63
2022-11-24T13:41:35.015Z,13.13
2022-11-24T13:45:35.505Z,19.42
2022-11-24T13:49:20.430Z,17.13
2022-11-24T13:53:09.433Z,19.33
2022-11-24T13:56:58.447Z,14.55
2022-11-24T14:01:04.176Z,14.18
2022-11-24T14:05:42.140Z,7.72
2022-11-24T14:09:28.750Z,6.13
2022-11-24T14:13:28.847Z,6.30
2022-11-24T14:17:14.082Z,8.57
2022-11-24T14:21:00.468Z,12.38
2022-11-24T14:24:45.480Z,9.02
2022-11-24T14:28:28.430Z,10.15
2022-11-24T14:32:16.741Z,9.17
2022-11-24T14:35:58.439Z,10.85
2022-11-24T14:39:41.070Z,9.65
2022-11-24T14:43:22.814Z,12.38
2022-11-24T14:47:05.700Z,12.82
2022-11-24T14:50:47.489Z,9.00
2022-11-24T14:54:32.802Z,10.20
2022-11-24T14:58:29.794Z,9.77
2022-11-24T15:02:50.068Z,12.07
2022-11-24T15:06:31.826Z,11.50
2022-11-24T15:10:35.097Z,10.68
2022-11-24T15:14:49.110Z,5.97
2022-11-24T15:18:41.797Z,10.38
2022-11-24T15:22:46.353Z,9.65
2022-11-24T15:26:34.222Z,9.48
2022-11-24T15:30:20.138Z,11.40
2022-11-24T15:34:22.029Z,8.85
2022-11-24T15:38:03.786Z,14.73
2022-11-24T15:41:47.926Z,8.85
2022-11-24T15:45:29.646Z,10.85
2022-11-24T15:49:11.359Z,19.15
2022-11-24T15:52:57.389Z,18.88
2022-11-24T15:56:41.784Z,19.20
2022-11-24T16:00:24.157Z,11.50
2022-11-24T16:04:27.912Z,16.15
2022-11-24T16:08:13.402Z,16.27
2022-11-24T16:12:15.589Z,13.43
2022-11-24T16:15:57.360Z,14.20
2022-11-24T16:19:42.010Z,17.38
2022-11-24T16:28:20.314Z,16.10
2022-11-24T16:32:04.513Z,16.67
2022-11-24T16:35:49.397Z,17.92
2022-11-24T16:39:31.117Z,12.68
2022-11-24T16:43:34.202Z,18.73
2022-11-24T16:47:16.679Z,20.25
2022-11-24T16:51:04.235Z,17.73
2022-11-24T16:54:47.396Z,21.80
2022-11-24T16:58:29.113Z,19.52
2022-11-24T17:02:49.884Z,19.55
2022-11-24T17:06:32.614Z,18.25
2022-11-24T17:10:14.409Z,22.17
2022-11-24T17:13:58.280Z,18.27
2022-11-24T17:17:55.380Z,16.75
2022-11-24T17:21:43.838Z,16.80
2022-11-24T17:25:25.532Z,17.15
2022-11-24T17:29:07.353Z,23.05
2022-11-24T17:32:53.670Z,16.05
2022-11-24T17:36:38.670Z,17.80
2022-11-24T17:40:28.487Z,25.80
2022-11-24T17:44:13.157Z,19.20
2022-11-24T17:47:55.431Z,17.52
2022-11-24T17:51:38.239Z,17.75
2022-11-24T17:55:19.965Z,18.37
2022-11-24T17:59:01.782Z,15.35
2022-11-24T18:03:05.408Z,19.73
2022-11-24T18:06:47.194Z,15.20
2022-11-24T18:10:29.021Z,22.17
2022-11-24T18:14:14.639Z,15.07
2022-11-24T18:17:56.382Z,25.08
2022-11-24T18:21:46.544Z,18.63
2022-11-24T18:25:28.337Z,15.20
2022-11-24T18:29:10.591Z,14.35
2022-11-24T18:33:13.190Z,14.10
2022-11-24T18:36:54.922Z,14.35
2022-11-24T18:40:40.311Z,16.27
2022-11-24T18:44:49.744Z,13.93
2022-11-24T18:48:34.575Z,13.10
2022-11-24T18:52:18.461Z,15.85
2022-11-24T18:56:02.342Z,15.45
2022-11-24T18:59:44.087Z,19.45
2022-11-24T19:04:25.747Z,20.27
2022-11-24T19:08:07.484Z,14.88
2022-11-24T19:11:53.000Z,16.17
2022-11-24T19:15:35.053Z,14.40
2022-11-24T19:19:17.241Z,15.07
2022-11-24T19:23:20.036Z,13.43
2022-11-24T19:27:02.278Z,17.42
2022-11-24T19:30:45.325Z,19.65
2022-11-24T19:34:34.454Z,22.38
2022-11-24T19:38:16.346Z,16.95
2022-11-24T19:42:54.466Z,17.50
2022-11-24T19:46:36.265Z,14.60
2022-11-24T19:50:18.597Z,17.10
2022-11-24T19:54:21.218Z,17.25
2022-11-24T19:58:02.950Z,13.60
2022-11-24T20:02:22.324Z,17.17
2022-11-24T20:06:04.787Z,16.25
2022-11-24T20:09:46.469Z,13.95
2022-11-24T20:13:29.436Z,15.77
2022-11-24T20:17:13.071Z,15.40
2022-11-24T20:20:55.593Z,16.10
2022-11-24T20:24:39.627Z,25.83
2022-11-24T20:28:22.244Z,17.42
2022-11-24T20:32:42.990Z,24.48
2022-11-24T20:36:26.298Z,20.15
2022-11-24T20:40:08.787Z,16.65
2022-11-24T20:44:47.237Z,13.38
2022-11-24T20:48:29.057Z,17.60
2022-11-24T20:52:50.580Z,14.90
2022-11-24T20:56:35.119Z,22.00
2022-11-24T21:00:17.033Z,19.92
2022-11-24T21:04:38.544Z,22.67
2022-11-24T21:08:20.360Z,16.55
2022-11-24T21:12:02.162Z,23.35
2022-11-24T21:15:43.941Z,16.27
2022-11-24T21:19:25.670Z,17.45
2022-11-24T21:23:28.374Z,19.38
2022-11-24T21:27:10.178Z,19.83
2022-11-24T21:30:51.986Z,22.05
2022-11-24T21:35:30.193Z,14.38
2022-11-24T21:39:13.621Z,14.75
2022-11-24T21:43:14.534Z,13.07
2022-11-24T21:46:56.370Z,22.02
2022-11-24T21:50:38.126Z,17.88
2022-11-24T21:54:19.898Z,17.15
2022-11-24T21:58:01.564Z,18.92
2022-11-24T22:01:44.472Z,14.65
2022-11-24T22:05:26.142Z,14.30
2022-11-24T22:09:07.802Z,18.40
2022-11-24T22:12:51.071Z,23.52
2022-11-24T22:16:32.821Z,20.25
2022-11-24T22:20:14.678Z,17.75
2022-11-24T22:23:56.594Z,19.60
2022-11-24T22:27:38.264Z,22.05
2022-11-24T22:31:27.092Z,16.85
2022-11-24T22:35:09.235Z,25.90
2022-11-24T22:38:58.704Z,25.70
2022-11-24T22:43:01.399Z,18.90
2022-11-24T22:46:43.068Z,19.80
2022-11-24T22:50:24.771Z,23.17
2022-11-24T22:54:25.493Z,19.20
2022-11-24T22:58:07.147Z,17.50
2022-11-24T23:01:48.874Z,19.45
2022-11-24T23:05:32.945Z,17.40
2022-11-24T23:09:14.701Z,18.58
2022-11-24T23:12:56.497Z,14.05
2022-11-24T23:16:38.230Z,23.88
2022-11-24T23:20:20.009Z,15.52
2022-11-24T23:24:02.484Z,19.98
2022-11-24T23:27:44.166Z,15.52
2022-11-24T23:31:28.712Z,17.23
2022-11-24T23:35:13.733Z,17.50
2022-11-24T23:38:55.888Z,19.63
2022-11-24T23:42:37.571Z,14.32
2022-11-24T23:46:20.840Z,22.35
2022-11-24T23:50:02.740Z,15.30
2022-11-24T23:53:44.760Z,16.80
2022-11-24T23:57:27.388Z,19.02
